Time;durP1;ratioP1;P1;durP2;ratioP2;P2;SDS_P1;SDS_P2;PMS_P1;PMS_P2;Temp;Humidity;BMP_temperature;BMP_pressure;BME280_temperature;BME280_humidity;BME280_pressure;Samples;Min_cycle;Max_cycle;Signal;HPM_P1;HPM_P2
2022/03/29 00:01:36;;;;;;;0.10;0.10;;;;;;;;;;4215001;28;20517;-34
2022/03/29 00:03:37;;;;;;;1.15;0.10;;;;;;;;;;4214493;28;20047;-34
2022/03/29 00:05:38;;;;;;;0.75;0.10;;;;;;;;;;4215039;28;20140;-34
2022/03/29 00:07:39;;;;;;;0.25;0.10;;;;;;;;;;4214761;28;20055;-34
2022/03/29 00:09:40;;;;;;;0.20;0.00;;;;;;;;;;4214936;28;20087;-34
2022/03/29 00:11:41;;;;;;;0.10;0.10;;;;;;;;;;4214696;28;20105;-34
2022/03/29 00:13:42;;;;;;;0.35;0.05;;;;;;;;;;4214826;28;20052;-34
2022/03/29 00:15:43;;;;;;;0.15;0.10;;;;;;;;;;4214791;28;20081;-34
2022/03/29 00:17:44;;;;;;;0.10;0.10;;;;;;;;;;4214219;28;20094;-34
2022/03/29 00:19:45;;;;;;;0.25;0.08;;;;;;;;;;4214849;28;20101;-34
2022/03/29 00:21:46;;;;;;;0.10;0.00;;;;;;;;;;4214700;28;20480;-34
2022/03/29 00:23:47;;;;;;;0.25;0.15;;;;;;;;;;4214547;28;20093;-34
2022/03/29 00:25:48;;;;;;;0.25;0.10;;;;;;;;;;4214806;28;20097;-34
2022/03/29 00:27:49;;;;;;;0.17;0.10;;;;;;;;;;4214371;28;20048;-35
2022/03/29 00:29:50;;;;;;;1.00;0.10;;;;;;;;;;4213386;28;20055;-34
2022/03/29 00:31:52;;;;;;;0.50;0.10;;;;;;;;;;4212939;28;20443;-34
2022/03/29 00:33:53;;;;;;;0.50;0.15;;;;;;;;;;4214825;28;20077;-34
2022/03/29 00:35:53;;;;;;;0.08;0.00;;;;;;;;;;4214541;28;20092;-34
2022/03/29 00:37:56;;;;;;;0.47;0.10;;;;;;;;;;4214387;28;20067;-34
2022/03/29 00:39:57;;;;;;;0.20;0.10;;;;;;;;;;4214337;28;20044;-34
2022/03/29 00:41:58;;;;;;;0.80;0.35;;;;;;;;;;4214209;28;20134;-34
2022/03/29 00:43:59;;;;;;;0.20;0.03;;;;;;;;;;4213057;28;20548;-34
2022/03/29 00:46:01;;;;;;;0.10;0.00;;;;;;;;;;4214411;28;20066;-34
2022/03/29 00:48:02;;;;;;;0.63;0.10;;;;;;;;;;4214190;28;20105;-34
2022/03/29 00:50:04;;;;;;;0.20;0.00;;;;;;;;;;4213020;28;20054;-34
2022/03/29 00:52:05;;;;;;;0.30;0.00;;;;;;;;;;4212776;28;20121;-34
2022/03/29 00:54:06;;;;;;;0.38;0.08;;;;;;;;;;4214436;28;20044;-35
2022/03/29 00:56:07;;;;;;;0.10;0.10;;;;;;;;;;4214122;28;20105;-34
2022/03/29 00:58:09;;;;;;;0.10;0.00;;;;;;;;;;4214415;28;20097;-34
2022/03/29 01:00:11;;;;;;;0.20;0.10;;;;;;;;;;4214005;28;20089;-34
2022/03/29 01:02:12;;;;;;;0.10;0.00;;;;;;;;;;4213872;28;20055;-34
2022/03/29 01:04:13;;;;;;;0.28;0.10;;;;;;;;;;4214070;28;20441;-34
2022/03/29 01:06:14;;;;;;;1.13;0.10;;;;;;;;;;4214090;28;20040;-34
2022/03/29 01:08:15;;;;;;;0.10;0.10;;;;;;;;;;4212546;28;20513;-34
2022/03/29 01:10:16;;;;;;;0.45;0.17;;;;;;;;;;4213935;28;20105;-34
2022/03/29 01:12:17;;;;;;;0.25;0.10;;;;;;;;;;4213694;28;20397;-34
2022/03/29 01:14:19;;;;;;;0.32;0.10;;;;;;;;;;4213850;28;20410;-34
2022/03/29 01:18:40;;;;;;;0.00;0.00;;;;;;;;;;4213635;28;20044;-34
2022/03/29 01:20:43;;;;;;;1.58;0.10;;;;;;;;;;4212876;28;20521;-34
2022/03/29 01:22:45;;;;;;;0.22;0.10;;;;;;;;;;4213752;28;20514;-34
2022/03/29 01:24:47;;;;;;;0.10;0.00;;;;;;;;;;4213788;28;20051;-34
2022/03/29 01:26:49;;;;;;;0.10;0.10;;;;;;;;;;4213655;28;20390;-34
2022/03/29 01:28:50;;;;;;;0.17;0.00;;;;;;;;;;4213718;28;20044;-34
2022/03/29 01:30:53;;;;;;;0.73;0.17;;;;;;;;;;4213547;28;20054;-34
2022/03/29 01:32:54;;;;;;;0.03;0.03;;;;;;;;;;4213351;28;20078;-34
2022/03/29 01:34:56;;;;;;;0.35;0.10;;;;;;;;;;4213828;28;20047;-36
2022/03/29 01:36:57;;;;;;;1.08;0.08;;;;;;;;;;4213376;28;20548;-34
2022/03/29 01:38:59;;;;;;;0.03;0.00;;;;;;;;;;4212169;28;20048;-34
2022/03/29 01:41:02;;;;;;;0.20;0.10;;;;;;;;;;4213580;28;20070;-35
2022/03/29 01:43:04;;;;;;;0.00;0.00;;;;;;;;;;4213267;28;20453;-34
2022/03/29 01:45:05;;;;;;;0.32;0.32;;;;;;;;;;4213585;28;20044;-34
2022/03/29 01:47:06;;;;;;;0.20;0.10;;;;;;;;;;4212917;28;20044;-34
2022/03/29 01:49:07;;;;;;;0.08;0.08;;;;;;;;;;4213281;28;20071;-34
2022/03/29 01:51:10;;;;;;;0.30;0.10;;;;;;;;;;4213760;28;20044;-34
2022/03/29 01:53:20;;;;;;;0.15;0.08;;;;;;;;;;4213124;28;20048;-34
2022/03/29 01:55:22;;;;;;;0.28;0.10;;;;;;;;;;4213183;28;20047;-34
2022/03/29 01:57:27;;;;;;;0.20;0.10;;;;;;;;;;4213219;28;20483;-34
2022/03/29 02:00:30;;;;;;;0.40;0.10;;;;;;;;;;4212565;28;20052;-34
2022/03/29 02:01:50;;;;;;;0.30;0.10;;;;;;;;;;4212539;28;20113;-34
2022/03/29 02:03:51;;;;;;;0.30;0.10;;;;;;;;;;4213364;28;20044;-34
2022/03/29 02:05:53;;;;;;;0.10;0.10;;;;;;;;;;4211610;28;20068;-34
2022/03/29 02:07:54;;;;;;;0.20;0.20;;;;;;;;;;4213025;28;20040;-34
2022/03/29 02:09:55;;;;;;;0.00;0.00;;;;;;;;;;4213040;28;20071;-34
2022/03/29 02:11:56;;;;;;;0.10;0.10;;;;;;;;;;4212733;28;20056;-34
2022/03/29 02:13:57;;;;;;;0.20;0.10;;;;;;;;;;4213401;28;20040;-34
2022/03/29 02:15:58;;;;;;;0.00;0.00;;;;;;;;;;4213147;28;20147;-34
2022/03/29 02:17:59;;;;;;;0.10;0.10;;;;;;;;;;4212644;28;20138;-34
2022/03/29 02:20:00;;;;;;;0.10;0.10;;;;;;;;;;4212949;28;20134;-34
2022/03/29 02:22:01;;;;;;;0.50;0.15;;;;;;;;;;4213053;28;20083;-34
2022/03/29 02:24:02;;;;;;;0.15;0.13;;;;;;;;;;4212947;28;20048;-34
2022/03/29 02:26:04;;;;;;;0.10;0.00;;;;;;;;;;4212950;28;20093;-34
2022/03/29 02:28:05;;;;;;;0.40;0.17;;;;;;;;;;4212483;28;20044;-34
2022/03/29 02:30:07;;;;;;;0.10;0.10;;;;;;;;;;4212935;28;20487;-35
2022/03/29 02:32:08;;;;;;;0.13;0.10;;;;;;;;;;4212263;28;20101;-35
2022/03/29 02:34:09;;;;;;;0.65;0.10;;;;;;;;;;4212741;28;20052;-34
2022/03/29 02:36:12;;;;;;;0.10;0.10;;;;;;;;;;4212707;28;20102;-34
2022/03/29 02:38:17;;;;;;;0.55;0.10;;;;;;;;;;4212484;28;20331;-34
2022/03/29 02:40:19;;;;;;;0.10;0.10;;;;;;;;;;4212432;28;20506;-34
2022/03/29 02:42:22;;;;;;;0.30;0.10;;;;;;;;;;4212553;28;20073;-34
2022/03/29 02:44:23;;;;;;;0.10;0.05;;;;;;;;;;4212612;28;20083;-34
2022/03/29 02:46:24;;;;;;;0.30;0.20;;;;;;;;;;4212590;28;20035;-34
2022/03/29 02:48:26;;;;;;;0.50;0.10;;;;;;;;;;4211028;28;20131;-34
2022/03/29 02:50:27;;;;;;;0.30;0.08;;;;;;;;;;4212486;28;20047;-34
2022/03/29 02:52:27;;;;;;;0.40;0.00;;;;;;;;;;4212456;28;20048;-34
2022/03/29 02:54:29;;;;;;;0.20;0.10;;;;;;;;;;4212490;28;20054;-34
2022/03/29 02:56:30;;;;;;;0.10;0.10;;;;;;;;;;4212793;28;20047;-35
2022/03/29 02:58:31;;;;;;;0.10;0.00;;;;;;;;;;4212285;28;20070;-34
2022/03/29 03:00:32;;;;;;;0.10;0.10;;;;;;;;;;4212495;28;20044;-34
2022/03/29 03:02:33;;;;;;;0.20;0.10;;;;;;;;;;4212161;28;20496;-34
2022/03/29 03:04:34;;;;;;;0.50;0.10;;;;;;;;;;4212486;28;20493;-34
2022/03/29 03:06:35;;;;;;;0.30;0.10;;;;;;;;;;4211118;28;20085;-35
2022/03/29 03:08:35;;;;;;;0.25;0.10;;;;;;;;;;4212387;28;20048;-34
2022/03/29 03:10:36;;;;;;;0.15;0.00;;;;;;;;;;4212417;28;20054;-34
2022/03/29 03:12:38;;;;;;;0.13;0.00;;;;;;;;;;4212446;28;20059;-34
2022/03/29 03:14:39;;;;;;;0.20;0.10;;;;;;;;;;4214754;28;20051;-34
2022/03/29 03:16:41;;;;;;;0.55;0.10;;;;;;;;;;4215905;28;20044;-34
2022/03/29 03:18:42;;;;;;;0.25;0.08;;;;;;;;;;4215584;28;20073;-34
2022/03/29 03:20:43;;;;;;;0.30;0.03;;;;;;;;;;4214259;28;20109;-34
2022/03/29 03:22:44;;;;;;;0.75;0.20;;;;;;;;;;4215444;28;20043;-34
2022/03/29 03:24:45;;;;;;;0.30;0.20;;;;;;;;;;4215487;28;20090;-34
2022/03/29 03:26:46;;;;;;;0.00;0.00;;;;;;;;;;4215646;28;20508;-34
2022/03/29 03:28:47;;;;;;;0.08;0.08;;;;;;;;;;4215744;28;20428;-34
2022/03/29 03:30:48;;;;;;;0.10;0.10;;;;;;;;;;4215387;28;20105;-34
2022/03/29 03:32:49;;;;;;;0.17;0.10;;;;;;;;;;4215004;28;20084;-34
2022/03/29 03:34:50;;;;;;;0.10;0.10;;;;;;;;;;4215470;28;20048;-34
2022/03/29 03:36:51;;;;;;;1.38;0.10;;;;;;;;;;4215306;28;20143;-34
2022/03/29 03:38:52;;;;;;;1.17;0.08;;;;;;;;;;4214089;28;20047;-34
2022/03/29 03:40:53;;;;;;;0.10;0.05;;;;;;;;;;4215224;28;20376;-34
2022/03/29 03:42:54;;;;;;;0.00;0.00;;;;;;;;;;4215249;28;20502;-34
2022/03/29 03:44:57;;;;;;;0.10;0.10;;;;;;;;;;4215326;28;20048;-34
2022/03/29 03:46:58;;;;;;;0.20;0.10;;;;;;;;;;4215093;28;20055;-34
2022/03/29 03:49:00;;;;;;;0.30;0.10;;;;;;;;;;4215403;28;20044;-34
2022/03/29 03:51:01;;;;;;;0.10;0.10;;;;;;;;;;4215297;28;20101;-34
2022/03/29 03:53:02;;;;;;;0.35;0.20;;;;;;;;;;4215052;28;20109;-34
2022/03/29 03:55:04;;;;;;;0.20;0.10;;;;;;;;;;4214930;28;20090;-34
2022/03/29 03:57:05;;;;;;;0.50;0.10;;;;;;;;;;4214998;28;20089;-34
2022/03/29 03:59:06;;;;;;;0.08;0.08;;;;;;;;;;4214811;28;20055;-34
2022/03/29 04:01:11;;;;;;;0.00;0.00;;;;;;;;;;4215414;28;20056;-34
2022/03/29 04:03:12;;;;;;;1.85;0.10;;;;;;;;;;4214493;28;20067;-34
2022/03/29 04:05:14;;;;;;;0.00;0.00;;;;;;;;;;4213932;28;20040;-34
2022/03/29 04:07:15;;;;;;;0.50;0.10;;;;;;;;;;4214726;28;20505;-34
2022/03/29 04:09:15;;;;;;;1.25;0.00;;;;;;;;;;4214866;28;20043;-34
2022/03/29 04:11:17;;;;;;;0.00;0.00;;;;;;;;;;4214668;28;20108;-34
2022/03/29 04:13:19;;;;;;;0.30;0.10;;;;;;;;;;4214721;28;20090;-34
2022/03/29 04:15:20;;;;;;;0.10;0.10;;;;;;;;;;4215025;28;20048;-34
2022/03/29 04:17:21;;;;;;;0.95;0.20;;;;;;;;;;4213222;28;20082;-34
2022/03/29 04:19:22;;;;;;;0.05;0.00;;;;;;;;;;4214996;28;20117;-34
2022/03/29 04:21:23;;;;;;;0.38;0.10;;;;;;;;;;4214815;28;20047;-34
2022/03/29 04:23:24;;;;;;;0.30;0.20;;;;;;;;;;4214490;28;20052;-34
2022/03/29 04:25:25;;;;;;;0.15;0.10;;;;;;;;;;4214653;28;20406;-34
2022/03/29 04:27:26;;;;;;;0.40;0.20;;;;;;;;;;4214540;28;20194;-34
2022/03/29 04:29:28;;;;;;;0.57;0.10;;;;;;;;;;4214599;28;20047;-34
2022/03/29 04:31:29;;;;;;;0.38;0.15;;;;;;;;;;4211115;28;20097;-34
2022/03/29 04:33:30;;;;;;;0.25;0.10;;;;;;;;;;4212733;28;20497;-34
2022/03/29 04:35:31;;;;;;;0.20;0.10;;;;;;;;;;4214610;28;20047;-34
2022/03/29 04:37:32;;;;;;;0.15;0.00;;;;;;;;;;4214374;28;20088;-34
2022/03/29 04:39:33;;;;;;;1.60;0.10;;;;;;;;;;4214168;28;20055;-34
2022/03/29 04:41:34;;;;;;;0.57;0.17;;;;;;;;;;4214358;28;20475;-34
2022/03/29 04:43:35;;;;;;;0.47;0.20;;;;;;;;;;4214274;28;20440;-34
2022/03/29 04:45:36;;;;;;;0.50;0.22;;;;;;;;;;4214613;28;20044;-34
2022/03/29 04:47:36;;;;;;;0.60;0.17;;;;;;;;;;4214135;28;20498;-34
2022/03/29 04:49:37;;;;;;;0.10;0.10;;;;;;;;;;4214504;28;20060;-34
2022/03/29 04:51:38;;;;;;;1.17;0.10;;;;;;;;;;4214359;28;20476;-34
2022/03/29 04:53:39;;;;;;;0.20;0.10;;;;;;;;;;4214312;28;20472;-34
2022/03/29 04:55:40;;;;;;;2.53;0.20;;;;;;;;;;4212909;28;20044;-34
2022/03/29 04:57:41;;;;;;;0.93;0.20;;;;;;;;;;4214453;28;20437;-34
2022/03/29 04:59:42;;;;;;;0.10;0.10;;;;;;;;;;4214028;28;20052;-34
2022/03/29 05:01:43;;;;;;;0.20;0.10;;;;;;;;;;4210184;28;20486;-34
2022/03/29 05:03:44;;;;;;;0.20;0.10;;;;;;;;;;4211378;28;20643;-34
2022/03/29 05:05:45;;;;;;;0.10;0.10;;;;;;;;;;4212024;28;20093;-34
2022/03/29 05:07:46;;;;;;;0.20;0.10;;;;;;;;;;4210391;28;20402;-34
2022/03/29 05:09:47;;;;;;;0.47;0.10;;;;;;;;;;4211884;28;20404;-34
2022/03/29 05:11:48;;;;;;;0.93;0.20;;;;;;;;;;4211699;28;20060;-34
2022/03/29 05:13:49;;;;;;;0.32;0.10;;;;;;;;;;4211598;28;20407;-36
2022/03/29 05:15:50;;;;;;;0.52;0.10;;;;;;;;;;4212044;28;20051;-35
2022/03/29 05:17:51;;;;;;;1.27;0.10;;;;;;;;;;4211278;28;20067;-35
2022/03/29 05:19:52;;;;;;;0.95;0.20;;;;;;;;;;4211634;28;20048;-35
2022/03/29 05:21:53;;;;;;;1.27;0.10;;;;;;;;;;4211489;28;20052;-34
2022/03/29 05:23:54;;;;;;;0.32;0.10;;;;;;;;;;4211559;28;20176;-34
2022/03/29 05:25:55;;;;;;;0.73;0.20;;;;;;;;;;4211318;28;20336;-35
2022/03/29 05:27:57;;;;;;;0.38;0.10;;;;;;;;;;4211476;28;20092;-35
2022/03/29 05:29:59;;;;;;;1.58;0.10;;;;;;;;;;4211904;28;20052;-36
2022/03/29 05:32:00;;;;;;;0.25;0.15;;;;;;;;;;4211238;28;20055;-35
2022/03/29 05:34:01;;;;;;;0.35;0.20;;;;;;;;;;4211519;28;20047;-34
2022/03/29 05:36:02;;;;;;;0.52;0.10;;;;;;;;;;4210619;28;20410;-34
2022/03/29 05:38:03;;;;;;;1.25;0.32;;;;;;;;;;4203268;28;20110;-35
2022/03/29 05:40:06;;;;;;;1.58;0.20;;;;;;;;;;4205630;28;20048;-34
2022/03/29 05:42:08;;;;;;;1.15;0.20;;;;;;;;;;4201939;28;20440;-35
2022/03/29 05:44:09;;;;;;;0.73;0.20;;;;;;;;;;4197082;28;20670;-36
2022/03/29 05:50:49;;;;;;;0.80;0.20;;;;;;;;;;4203090;28;20117;-34
2022/03/29 05:52:50;;;;;;;0.30;0.10;;;;;;;;;;4207311;28;20048;-34
2022/03/29 05:54:51;;;;;;;1.63;0.30;;;;;;;;;;4198428;28;20052;-35
2022/03/29 05:56:53;;;;;;;1.10;0.20;;;;;;;;;;4202970;28;20163;-36
2022/03/29 05:58:54;;;;;;;1.20;0.20;;;;;;;;;;4201806;28;20059;-34
2022/03/29 06:00:55;;;;;;;0.95;0.20;;;;;;;;;;4202750;28;20422;-34
2022/03/29 06:02:56;;;;;;;1.52;0.20;;;;;;;;;;4202359;28;20148;-34
2022/03/29 06:04:58;;;;;;;0.88;0.30;;;;;;;;;;4207032;28;20406;-34
2022/03/29 06:06:59;;;;;;;1.58;0.40;;;;;;;;;;4204796;28;20097;-34
2022/03/29 06:09:00;;;;;;;1.25;0.22;;;;;;;;;;4202091;28;20577;-34
2022/03/29 06:11:02;;;;;;;0.28;0.10;;;;;;;;;;4203567;28;20101;-33
2022/03/29 06:13:03;;;;;;;1.15;0.35;;;;;;;;;;4199740;28;20499;-34
2022/03/29 06:15:05;;;;;;;1.52;0.40;;;;;;;;;;4202072;28;20086;-33
2022/03/29 06:17:07;;;;;;;0.30;0.20;;;;;;;;;;4206969;28;20048;-33
2022/03/29 06:19:11;;;;;;;0.77;0.20;;;;;;;;;;4199199;28;20097;-34
2022/03/29 06:21:12;;;;;;;0.93;0.40;;;;;;;;;;4196495;28;20395;-34
2022/03/29 06:23:13;;;;;;;0.77;0.32;;;;;;;;;;4199252;28;20048;-34
2022/03/29 06:25:14;;;;;;;0.63;0.20;;;;;;;;;;4194567;28;20109;-34
2022/03/29 06:27:16;;;;;;;0.35;0.20;;;;;;;;;;4201833;28;20043;-34
2022/03/29 06:29:17;;;;;;;0.30;0.28;;;;;;;;;;4199022;28;20117;-34
2022/03/29 06:31:19;;;;;;;0.47;0.28;;;;;;;;;;4199093;28;20058;-34
2022/03/29 06:33:20;;;;;;;1.17;0.20;;;;;;;;;;4196984;28;20121;-33
2022/03/29 06:35:22;;;;;;;1.75;0.50;;;;;;;;;;4195205;28;20423;-34
2022/03/29 06:37:23;;;;;;;0.85;0.20;;;;;;;;;;4190885;28;20121;-33
2022/03/29 06:39:24;;;;;;;1.23;0.10;;;;;;;;;;4198837;28;20565;-33
2022/03/29 06:41:25;;;;;;;0.63;0.10;;;;;;;;;;4193343;28;20137;-33
2022/03/29 06:43:26;;;;;;;0.32;0.25;;;;;;;;;;4191506;28;20106;-34
2022/03/29 06:45:27;;;;;;;0.50;0.20;;;;;;;;;;4191962;28;20053;-33
2022/03/29 06:47:28;;;;;;;0.52;0.28;;;;;;;;;;4187123;28;20337;-34
2022/03/29 06:49:29;;;;;;;0.28;0.10;;;;;;;;;;4193434;28;20171;-34
2022/03/29 06:51:31;;;;;;;1.92;0.22;;;;;;;;;;4192898;28;20065;-34
2022/03/29 06:53:31;;;;;;;0.47;0.20;;;;;;;;;;4194204;28;20048;-34
2022/03/29 06:55:32;;;;;;;0.38;0.20;;;;;;;;;;4195057;28;20051;-34
2022/03/29 06:57:33;;;;;;;0.65;0.35;;;;;;;;;;4193208;28;20054;-34
2022/03/29 06:59:34;;;;;;;1.17;0.20;;;;;;;;;;4188180;28;20056;-34
2022/03/29 07:01:36;;;;;;;0.20;0.10;;;;;;;;;;4188677;28;20052;-35
2022/03/29 07:03:37;;;;;;;1.15;0.22;;;;;;;;;;4179340;28;20129;-38
2022/03/29 07:05:42;;;;;;;0.85;0.20;;;;;;;;;;4172240;28;20048;-34
2022/03/29 07:07:43;;;;;;;0.38;0.10;;;;;;;;;;4187689;28;20048;-34
2022/03/29 07:12:05;;;;;;;0.63;0.28;;;;;;;;;;4189410;28;20052;-34
2022/03/29 07:14:07;;;;;;;2.80;1.10;;;;;;;;;;4188516;28;20053;-34
2022/03/29 07:16:09;;;;;;;0.40;0.20;;;;;;;;;;4190485;28;20500;-34
2022/03/29 07:18:10;;;;;;;0.25;0.10;;;;;;;;;;4183149;28;20735;-35
2022/03/29 07:20:11;;;;;;;0.95;0.25;;;;;;;;;;4187364;28;20044;-35
2022/03/29 07:22:13;;;;;;;1.77;0.20;;;;;;;;;;4191268;28;20814;-34
2022/03/29 07:24:13;;;;;;;0.30;0.30;;;;;;;;;;4193875;28;20058;-34
2022/03/29 07:26:14;;;;;;;0.75;0.15;;;;;;;;;;4191923;28;20121;-34
2022/03/29 07:28:15;;;;;;;1.83;0.35;;;;;;;;;;4188035;28;20048;-34
2022/03/29 07:30:17;;;;;;;3.30;0.38;;;;;;;;;;4193329;28;20478;-34
2022/03/29 07:32:18;;;;;;;0.30;0.20;;;;;;;;;;4187467;28;20582;-34
2022/03/29 07:34:19;;;;;;;4.18;0.20;;;;;;;;;;4189014;28;20128;-34
2022/03/29 07:36:20;;;;;;;2.10;0.50;;;;;;;;;;4188702;28;20055;-35
2022/03/29 07:38:21;;;;;;;2.13;0.28;;;;;;;;;;4182434;28;20084;-35
2022/03/29 07:40:24;;;;;;;1.88;0.20;;;;;;;;;;4187750;28;20860;-34
2022/03/29 07:42:25;;;;;;;1.13;0.25;;;;;;;;;;4188416;28;20856;-34
2022/03/29 07:44:26;;;;;;;1.33;0.38;;;;;;;;;;4194712;28;20048;-34
2022/03/29 07:46:27;;;;;;;0.45;0.10;;;;;;;;;;4188685;28;20048;-34
2022/03/29 07:48:28;;;;;;;1.35;0.17;;;;;;;;;;4192173;28;20043;-34
2022/03/29 07:50:30;;;;;;;0.90;0.38;;;;;;;;;;4192399;28;20673;-35
2022/03/29 07:52:31;;;;;;;0.47;0.25;;;;;;;;;;4189502;28;20472;-34
2022/03/29 07:54:32;;;;;;;1.98;0.30;;;;;;;;;;4187051;28;20109;-35
2022/03/29 07:56:33;;;;;;;1.17;0.10;;;;;;;;;;4188465;28;20056;-34
2022/03/29 07:58:34;;;;;;;0.50;0.20;;;;;;;;;;4192560;28;20491;-34
2022/03/29 08:00:35;;;;;;;1.88;0.30;;;;;;;;;;4191242;28;20055;-35
2022/03/29 08:02:37;;;;;;;2.50;0.32;;;;;;;;;;4194444;28;20106;-35
2022/03/29 08:04:38;;;;;;;1.58;0.30;;;;;;;;;;4193945;28;20093;-34
2022/03/29 08:06:40;;;;;;;2.15;0.10;;;;;;;;;;4190417;28;20101;-35
2022/03/29 08:08:41;;;;;;;3.25;0.38;;;;;;;;;;4192755;28;20048;-34
2022/03/29 08:10:42;;;;;;;2.42;0.20;;;;;;;;;;4195886;28;20059;-35
2022/03/29 08:12:44;;;;;;;3.55;0.25;;;;;;;;;;4192495;28;20052;-35
2022/03/29 08:14:44;;;;;;;0.57;0.30;;;;;;;;;;4195997;28;20112;-35
2022/03/29 08:16:46;;;;;;;1.00;0.22;;;;;;;;;;4197458;28;20052;-34
2022/03/29 08:18:47;;;;;;;3.20;0.50;;;;;;;;;;4181795;28;20087;-34
2022/03/29 08:20:48;;;;;;;1.85;0.52;;;;;;;;;;4196815;28;20510;-34
2022/03/29 08:22:49;;;;;;;1.65;0.40;;;;;;;;;;4189982;28;20517;-34
2022/03/29 08:24:51;;;;;;;1.25;0.30;;;;;;;;;;4191000;28;20048;-34
2022/03/29 08:26:54;;;;;;;0.60;0.30;;;;;;;;;;4186250;28;20426;-35
2022/03/29 08:28:55;;;;;;;1.80;0.40;;;;;;;;;;4187912;28;20501;-34
2022/03/29 08:30:56;;;;;;;1.85;0.50;;;;;;;;;;4194246;28;20052;-35
2022/03/29 08:32:57;;;;;;;1.13;0.20;;;;;;;;;;4189336;28;20047;-35
2022/03/29 08:34:59;;;;;;;1.13;0.10;;;;;;;;;;4191064;28;20051;-34
2022/03/29 08:37:00;;;;;;;1.38;0.50;;;;;;;;;;4191671;28;20051;-34
2022/03/29 08:39:03;;;;;;;1.90;0.30;;;;;;;;;;4189451;28;20051;-34
2022/03/29 08:41:05;;;;;;;0.88;0.20;;;;;;;;;;4188441;28;20097;-35
2022/03/29 08:43:08;;;;;;;1.17;0.35;;;;;;;;;;4186537;28;20056;-35
2022/03/29 08:45:10;;;;;;;4.38;0.40;;;;;;;;;;4192882;28;20048;-36
2022/03/29 08:47:11;;;;;;;2.78;0.20;;;;;;;;;;4185689;28;20053;-36
2022/03/29 08:49:13;;;;;;;0.45;0.40;;;;;;;;;;4191937;28;20081;-36
2022/03/29 08:51:14;;;;;;;0.30;0.20;;;;;;;;;;4189453;28;20456;-36
2022/03/29 08:53:19;;;;;;;1.10;0.40;;;;;;;;;;4189486;28;20062;-36
2022/03/29 08:55:21;;;;;;;2.13;0.30;;;;;;;;;;4187896;28;20550;-36
2022/03/29 08:57:22;;;;;;;2.38;0.30;;;;;;;;;;4188505;28;20434;-36
2022/03/29 08:59:25;;;;;;;2.53;0.30;;;;;;;;;;4189535;28;20987;-36
2022/03/29 09:01:27;;;;;;;1.58;0.20;;;;;;;;;;4186167;28;20101;-36
2022/03/29 09:03:28;;;;;;;0.32;0.10;;;;;;;;;;4186443;28;20056;-36
2022/03/29 09:05:32;;;;;;;1.05;0.35;;;;;;;;;;4184018;28;20055;-36
2022/03/29 09:07:53;;;;;;;0.77;0.20;;;;;;;;;;4197465;28;20078;-36
2022/03/29 09:10:00;;;;;;;0.60;0.20;;;;;;;;;;4198572;28;20066;-36
2022/03/29 09:12:12;;;;;;;0.20;0.10;;;;;;;;;;4194463;28;20403;-36
2022/03/29 09:14:13;;;;;;;2.05;0.77;;;;;;;;;;4191930;28;20063;-36
2022/03/29 09:16:27;;;;;;;0.20;0.20;;;;;;;;;;4193834;28;20047;-36
2022/03/29 09:18:29;;;;;;;1.30;0.47;;;;;;;;;;4189722;28;20481;-36
2022/03/29 09:20:31;;;;;;;1.55;0.20;;;;;;;;;;4195688;28;20480;-36
2022/03/29 09:22:34;;;;;;;4.43;1.30;;;;;;;;;;4191312;28;20075;-36
2022/03/29 09:24:36;;;;;;;3.42;0.30;;;;;;;;;;4194248;28;20044;-36
2022/03/29 09:26:38;;;;;;;1.70;0.30;;;;;;;;;;4195071;28;20056;-36
2022/03/29 09:28:39;;;;;;;5.25;0.65;;;;;;;;;;4187758;28;20483;-36
2022/03/29 09:30:42;;;;;;;0.40;0.20;;;;;;;;;;4192324;28;20052;-36
2022/03/29 09:33:04;;;;;;;1.40;0.30;;;;;;;;;;4195188;28;20454;-36
2022/03/29 09:35:09;;;;;;;1.95;0.10;;;;;;;;;;4193568;28;20616;-36
2022/03/29 09:37:11;;;;;;;0.95;0.10;;;;;;;;;;4191098;28;20128;-37
2022/03/29 09:39:30;;;;;;;3.05;0.22;;;;;;;;;;4193892;28;20579;-35
2022/03/29 09:41:32;;;;;;;2.80;0.20;;;;;;;;;;4193934;28;20056;-35
2022/03/29 09:43:36;;;;;;;1.48;0.38;;;;;;;;;;4198147;28;20142;-35
2022/03/29 09:45:37;;;;;;;0.60;0.20;;;;;;;;;;4193552;28;20080;-34
2022/03/29 09:47:38;;;;;;;0.30;0.10;;;;;;;;;;4200573;28;20043;-35
2022/03/29 09:49:53;;;;;;;1.00;0.20;;;;;;;;;;4197171;28;20472;-35
2022/03/29 09:52:10;;;;;;;0.82;0.10;;;;;;;;;;4194824;28;20470;-37
2022/03/29 09:54:11;;;;;;;0.85;0.10;;;;;;;;;;4195929;28;20040;-37
2022/03/29 09:56:15;;;;;;;2.60;0.30;;;;;;;;;;4190723;28;20097;-37
2022/03/29 09:58:15;;;;;;;0.63;0.13;;;;;;;;;;4198217;28;20047;-37
2022/03/29 10:00:33;;;;;;;0.85;0.20;;;;;;;;;;4198565;28;20136;-37
2022/03/29 10:02:35;;;;;;;0.20;0.15;;;;;;;;;;4197285;28;20101;-36
2022/03/29 10:04:36;;;;;;;1.60;0.30;;;;;;;;;;4202689;28;20113;-37
2022/03/29 10:06:37;;;;;;;0.40;0.10;;;;;;;;;;4202458;28;20044;-39
2022/03/29 10:10:59;;;;;;;2.35;0.20;;;;;;;;;;4192132;28;20113;-36
2022/03/29 10:13:00;;;;;;;0.75;0.20;;;;;;;;;;4194864;28;20060;-36
2022/03/29 10:15:01;;;;;;;0.68;0.30;;;;;;;;;;4191687;28;20097;-36
2022/03/29 10:17:02;;;;;;;0.10;0.10;;;;;;;;;;4196694;28;20051;-38
2022/03/29 10:19:04;;;;;;;1.13;0.20;;;;;;;;;;4196859;28;20059;-37
2022/03/29 10:21:05;;;;;;;0.20;0.20;;;;;;;;;;4198548;28;20082;-37
2022/03/29 10:23:07;;;;;;;1.00;0.17;;;;;;;;;;4196541;28;20535;-36
2022/03/29 10:25:08;;;;;;;0.17;0.15;;;;;;;;;;4188043;28;20064;-36
2022/03/29 10:27:10;;;;;;;0.22;0.17;;;;;;;;;;4191098;28;20043;-37
2022/03/29 10:29:11;;;;;;;3.42;0.30;;;;;;;;;;4197571;28;20048;-36
2022/03/29 10:31:36;;;;;;;0.13;0.13;;;;;;;;;;4198962;28;20056;-37
2022/03/29 10:33:38;;;;;;;0.45;0.30;;;;;;;;;;4196248;28;20188;-37
2022/03/29 10:35:58;;;;;;;2.13;0.10;;;;;;;;;;4196033;28;20431;-37
2022/03/29 10:37:59;;;;;;;0.20;0.10;;;;;;;;;;4187221;28;20044;-37
2022/03/29 10:40:04;;;;;;;1.08;0.20;;;;;;;;;;4187266;28;20048;-35
2022/03/29 10:42:23;;;;;;;3.25;0.30;;;;;;;;;;4192879;28;20255;-35
2022/03/29 10:44:24;;;;;;;1.75;0.30;;;;;;;;;;4187795;28;20048;-36
2022/03/29 10:46:37;;;;;;;0.30;0.30;;;;;;;;;;4191409;28;20127;-36
2022/03/29 10:48:41;;;;;;;0.63;0.10;;;;;;;;;;4183750;28;20048;-35
2022/03/29 10:50:45;;;;;;;0.20;0.20;;;;;;;;;;4176582;28;20109;-35
2022/03/29 10:52:47;;;;;;;0.20;0.20;;;;;;;;;;4190884;28;20049;-36
2022/03/29 10:54:49;;;;;;;0.75;0.20;;;;;;;;;;4185769;28;20049;-35
2022/03/29 10:57:00;;;;;;;0.77;0.40;;;;;;;;;;4188127;28;20052;-35
2022/03/29 10:59:01;;;;;;;1.55;0.20;;;;;;;;;;4186320;28;21136;-36
2022/03/29 11:01:12;;;;;;;0.50;0.35;;;;;;;;;;4188389;28;20609;-35
2022/03/29 11:03:23;;;;;;;1.45;0.22;;;;;;;;;;4187296;28;20043;-36
2022/03/29 11:05:24;;;;;;;1.02;0.30;;;;;;;;;;4191559;28;20045;-36
2022/03/29 11:07:26;;;;;;;0.57;0.20;;;;;;;;;;4188442;28;20060;-35
2022/03/29 11:09:27;;;;;;;0.47;0.25;;;;;;;;;;4192793;28;20093;-35
2022/03/29 11:11:41;;;;;;;2.95;0.43;;;;;;;;;;4191320;28;20060;-36
2022/03/29 11:13:42;;;;;;;0.85;0.20;;;;;;;;;;4191454;28;20052;-36
2022/03/29 11:15:43;;;;;;;1.25;0.20;;;;;;;;;;4190256;28;20044;-35
2022/03/29 11:17:44;;;;;;;2.22;0.30;;;;;;;;;;4195298;28;20044;-36
2022/03/29 11:19:47;;;;;;;1.80;0.20;;;;;;;;;;4194059;28;20519;-36
2022/03/29 11:21:48;;;;;;;0.52;0.20;;;;;;;;;;4193921;28;20053;-35
2022/03/29 11:23:50;;;;;;;1.58;0.20;;;;;;;;;;4193308;28;20479;-36
2022/03/29 11:25:51;;;;;;;0.30;0.20;;;;;;;;;;4192520;28;20048;-36
2022/03/29 11:27:52;;;;;;;1.30;0.20;;;;;;;;;;4189601;28;20101;-36
2022/03/29 11:29:54;;;;;;;2.88;0.40;;;;;;;;;;4187196;28;20052;-35
2022/03/29 11:31:56;;;;;;;2.92;0.32;;;;;;;;;;4184747;28;20078;-36
2022/03/29 11:33:58;;;;;;;0.50;0.30;;;;;;;;;;4189570;28;21231;-35
2022/03/29 11:35:59;;;;;;;0.75;0.30;;;;;;;;;;4187273;28;20052;-36
2022/03/29 11:38:07;;;;;;;0.47;0.30;;;;;;;;;;4192621;28;20366;-36
2022/03/29 11:40:10;;;;;;;0.88;0.20;;;;;;;;;;4186974;28;20052;-35
2022/03/29 11:42:13;;;;;;;1.60;0.20;;;;;;;;;;4195904;28;20044;-36
2022/03/29 11:44:14;;;;;;;1.42;0.28;;;;;;;;;;4195563;28;20056;-36
2022/03/29 11:46:15;;;;;;;1.20;0.45;;;;;;;;;;4196057;28;20052;-36
2022/03/29 11:48:18;;;;;;;0.45;0.17;;;;;;;;;;4199678;28;20181;-35
2022/03/29 11:50:29;;;;;;;1.20;0.20;;;;;;;;;;4196723;28;20101;-36
2022/03/29 11:52:34;;;;;;;0.73;0.20;;;;;;;;;;4186921;28;20056;-35
2022/03/29 11:54:39;;;;;;;0.30;0.10;;;;;;;;;;4188175;28;20465;-35
2022/03/29 11:56:40;;;;;;;0.10;0.10;;;;;;;;;;4190463;28;20055;-35
2022/03/29 11:58:42;;;;;;;1.40;0.20;;;;;;;;;;4193208;28;20099;-35
2022/03/29 12:00:43;;;;;;;0.17;0.10;;;;;;;;;;4189741;28;20048;-35
2022/03/29 12:02:44;;;;;;;1.58;0.20;;;;;;;;;;4195794;28;20040;-35
2022/03/29 12:04:47;;;;;;;0.47;0.20;;;;;;;;;;4195329;28;20102;-35
2022/03/29 12:06:50;;;;;;;1.05;0.30;;;;;;;;;;4191206;28;20059;-35
2022/03/29 12:08:54;;;;;;;0.20;0.13;;;;;;;;;;4194629;28;20168;-35
2022/03/29 12:11:05;;;;;;;0.32;0.20;;;;;;;;;;4190997;28;20059;-35
2022/03/29 12:13:14;;;;;;;1.55;0.10;;;;;;;;;;4195906;28;20921;-35
2022/03/29 12:15:14;;;;;;;0.43;0.25;;;;;;;;;;4186952;28;20882;-35
2022/03/29 12:17:16;;;;;;;0.95;0.20;;;;;;;;;;4193011;28;20060;-35
2022/03/29 12:19:25;;;;;;;0.22;0.10;;;;;;;;;;4192988;28;20052;-35
2022/03/29 12:21:26;;;;;;;0.63;0.10;;;;;;;;;;4191023;28;20105;-35
2022/03/29 12:23:28;;;;;;;1.00;0.40;;;;;;;;;;4196989;28;20106;-35
2022/03/29 12:25:29;;;;;;;0.40;0.10;;;;;;;;;;4192878;28;20083;-35